Relevés horaires Melle (Belgique)


Relevés horaires à Melle - Jeudi 15 Oct. 2015
Heure UTC1 Température [°C] Vent [km/h] Hum. [%] Pres.4 [hPa] Visi. [Km] Nébu. [octa] Préc.5 [mm] Cond.
2m. Res. Ros. Dir.2 Vit. Moy. Raf.3
23:00 6.4 5.5 5.5 O 5.6 7.4 11.1 94 1018.1(-1.3/3h) -- -- -- --
22:00 6.1 5.1 5.2 O 5.6 7.4 9.3 94 1018.5(-1.1/3h) -- -- -- --
21:00 6.1 5.1 5.2 O 5.6 5.6 7.4 94 1019.1(-0.6/3h) -- -- -- --
20:00 6.1 6.1 5.2 OSO 3.7 3.7 7.4 94 1019.4(-0.3/3h) -- -- -- --
19:00 6.0 6.0 5.1 OSO 3.7 3.7 5.6 94 1019.7(-0.2/3h) -- -- -- --
18:00 6.1 6.1 5.1 O 3.7 5.6 7.4 93 1019.7(-0.1/3h) -- -- 4/12h
--
17:00 6.2 6.2 5.1 O 1.9 3.7 5.6 93 1019.7(-0.2/3h) -- -- -- --
16:00 6.2 6.2 5.0 N 3.7 3.7 5.6 92 1019.8(-0.4/3h) -- -- -- --
15:00 6.5 6.5 5.1 N 3.7 5.6 7.4 91 1019.8(-0.7/3h) -- -- -- --
14:00 6.1 6.1 4.6 N 3.7 3.7 5.6 90 1020(-0.8/3h) -- -- -- --
13:00 5.7 5.7 3.9 N 3.7 5.6 7.4 88 1020.3(-0.4/3h) -- -- -- --
12:00 5.8 4.8 3.3 N 5.6 7.4 11.1 84 1020.6(-0.1/3h) -- -- 0/0h
0/6h
--
11:00 5.9 4.9 2.9 NNE 5.6 7.4 9.3 81 1020.8(0.0/3h) -- -- -- --
10:00 5.9 4.9 2.8 NE 5.6 7.4 11.1 80 1020.7(0.2/3h) -- -- -- --
09:00 5.0 3.3 2.4 NE 7.4 7.4 11.1 83 1020.7(0.6/3h) -- -- -- --
08:00 4.1 4.1 2.4 NE 3.7 7.4 9.3 89 1020.8(0.9/3h) -- -- -- --
07:00 4.0 2.1 2.2 NNE 7.4 7.4 11.1 88 1020.5(0.8/3h) -- -- -- --
06:00 4.0 2.7 2.4 NE 5.6 7.4 11.1 89 1020.1(0.3/3h) -- -- 0.4/12h
--
05:00 4.0 4.0 2.7 NE 3.7 7.4 11.1 91 1019.9(-0.1/3h) -- -- -- --
04:00 3.8 2.5 2.8 NNE 5.6 5.6 9.3 93 1019.7(-0.5/3h) -- -- -- --
03:00 4.1 2.8 3.1 N 5.6 5.6 7.4 93 1019.8(-0.1/3h) -- -- -- --
02:00 4.1 2.8 3.1 NNE 5.6 5.6 7.4 93 1020(0.0/3h) -- -- -- --
01:00 4.0 4.0 2.9 NNE 3.7 5.6 7.4 93 1020.2(0.1/3h) -- -- -- --
00:00 3.8 3.8 2.7 NE 3.7 7.4 11.1 93 1019.9(-0.3/3h) -- -- 0.4/6h
--

1 Coordinated Universal Time. Actuellement il est 01:00 locale et 23:00 UTC.

2 Le vent souffle depuis la direction indiquée vers la direction oposée.

3 Les rafales max. sont disponible 40 min après l'heure du relevé.

4 Pour les stations d'altitude (plus de 600m) le géopotentiel du niveau le plus proche de la pression obligatoire est indiqué.

5 Les stations disposant d'un diffuseur peuvent indiquer "trace". Cela signifie que des précipitations ont touchés le sol mais que la quantité est inférieure à 0.1 mm.

Récapitulatif de la journée
Température [°C] Vent [km/h] Ensoleillement4 [h] Precipitations totale5 [mm] Pression [Hpa]
Min1 Max.2 Moy.3 Max. Min Max.
3.4 6.5 6 11.1 0 h 0 min 0 1018.1 1020.8

1 Température minimale relevée entre 18:00 UTC la veille et 18:00 UTC le jour donné.

2 Température maximale relevée entre 06:00 UTC le jour donné et 06:00 UTC le lendemain.

3 Vent moyen de la journée basé sur les relevés horaires.

4 Ensoleillement en heures relevé entre 06:00 UTC la veille et 06:00 UTC le jour donné.

5 Précipitations totales tombées entre 06:00 UTC la jour donné et 06:00 UTC le lendemain.

Graphiques horaires